sensor_id;sensor_type;location;lat;lon;timestamp;pressure;altitude;pressure_sealevel;temperature;humidity
23321;BME280;33376;51.306;4.752;2022-12-26T00:00:16;73386.03;;;11.84;nan
23321;BME280;33376;51.306;4.752;2022-12-26T00:02:41;73408.94;;;11.64;nan
23321;BME280;33376;51.306;4.752;2022-12-26T00:05:06;73408.94;;;11.58;nan
23321;BME280;33376;51.306;4.752;2022-12-26T00:07:32;73413.50;;;11.57;nan
23321;BME280;33376;51.306;4.752;2022-12-26T00:09:57;73418.09;;;11.53;nan
23321;BME280;33376;51.306;4.752;2022-12-26T00:12:22;73422.66;;;11.52;nan
23321;BME280;33376;51.306;4.752;2022-12-26T00:14:47;73419.59;;;11.50;nan
23321;BME280;33376;51.306;4.752;2022-12-26T00:17:12;73419.59;;;11.57;nan
23321;BME280;33376;51.306;4.752;2022-12-26T00:19:38;73422.66;;;11.54;nan
23321;BME280;33376;51.306;4.752;2022-12-26T00:22:03;73436.41;;;11.50;nan
23321;BME280;33376;51.306;4.752;2022-12-26T00:24:28;73433.34;;;11.54;nan
23321;BME280;33376;51.306;4.752;2022-12-26T00:26:54;73431.81;;;11.55;nan
23321;BME280;33376;51.306;4.752;2022-12-26T00:29:19;73433.34;;;11.52;nan
23321;BME280;33376;51.306;4.752;2022-12-26T00:31:44;73427.25;;;11.52;nan
23321;BME280;33376;51.306;4.752;2022-12-26T00:34:10;73436.41;;;11.48;nan
23321;BME280;33376;51.306;4.752;2022-12-26T00:36:36;73434.88;;;11.53;nan
23321;BME280;33376;51.306;4.752;2022-12-26T00:39:01;73436.41;;;11.52;nan
23321;BME280;33376;51.306;4.752;2022-12-26T00:41:27;73440.97;;;11.46;nan
23321;BME280;33376;51.306;4.752;2022-12-26T00:43:52;73440.97;;;11.45;nan
23321;BME280;33376;51.306;4.752;2022-12-26T00:46:17;73445.53;;;11.47;nan
23321;BME280;33376;51.306;4.752;2022-12-26T00:48:43;73440.97;;;11.47;nan
23321;BME280;33376;51.306;4.752;2022-12-26T00:51:08;73447.06;;;11.48;nan
23321;BME280;33376;51.306;4.752;2022-12-26T00:53:33;73431.81;;;11.54;nan
23321;BME280;33376;51.306;4.752;2022-12-26T00:55:59;73422.66;;;11.64;nan
23321;BME280;33376;51.306;4.752;2022-12-26T00:58:24;73428.75;;;11.55;nan
23321;BME280;33376;51.306;4.752;2022-12-26T01:00:50;73442.50;;;11.53;nan
23321;BME280;33376;51.306;4.752;2022-12-26T01:03:15;73450.13;;;11.51;nan
23321;BME280;33376;51.306;4.752;2022-12-26T01:05:42;73448.59;;;11.52;nan
23321;BME280;33376;51.306;4.752;2022-12-26T01:08:07;73436.41;;;11.62;nan
23321;BME280;33376;51.306;4.752;2022-12-26T01:10:33;73436.41;;;11.56;nan
23321;BME280;33376;51.306;4.752;2022-12-26T01:12:58;73439.44;;;11.56;nan
23321;BME280;33376;51.306;4.752;2022-12-26T01:15:23;73433.34;;;11.57;nan
23321;BME280;33376;51.306;4.752;2022-12-26T01:17:48;73442.50;;;11.48;nan
23321;BME280;33376;51.306;4.752;2022-12-26T01:20:14;73437.91;;;11.52;nan
23321;BME280;33376;51.306;4.752;2022-12-26T01:22:39;73431.81;;;11.61;nan
23321;BME280;33376;51.306;4.752;2022-12-26T01:25:04;73421.13;;;11.69;nan
23321;BME280;33376;51.306;4.752;2022-12-26T01:27:30;73424.19;;;11.67;nan
23321;BME280;33376;51.306;4.752;2022-12-26T01:29:55;73411.97;;;11.80;nan
23321;BME280;33376;51.306;4.752;2022-12-26T01:32:20;73424.19;;;11.69;nan
23321;BME280;33376;51.306;4.752;2022-12-26T01:34:46;73416.56;;;11.80;nan
23321;BME280;33376;51.306;4.752;2022-12-26T01:37:14;73416.56;;;11.76;nan
23321;BME280;33376;51.306;4.752;2022-12-26T01:39:40;73422.66;;;11.73;nan
23321;BME280;33376;51.306;4.752;2022-12-26T01:42:12;73422.66;;;11.73;nan
23321;BME280;33376;51.306;4.752;2022-12-26T01:44:54;73434.88;;;11.72;nan
23321;BME280;33376;51.306;4.752;2022-12-26T01:47:20;73430.28;;;11.71;nan
23321;BME280;33376;51.306;4.752;2022-12-26T01:49:48;73431.81;;;11.72;nan
23321;BME280;33376;51.306;4.752;2022-12-26T01:52:16;73419.59;;;11.74;nan
23321;BME280;33376;51.306;4.752;2022-12-26T01:54:46;73422.66;;;11.70;nan
23321;BME280;33376;51.306;4.752;2022-12-26T01:57:17;73419.59;;;11.77;nan
23321;BME280;33376;51.306;4.752;2022-12-26T01:59:43;73425.72;;;11.74;nan
23321;BME280;33376;51.306;4.752;2022-12-26T02:02:10;73427.25;;;11.79;nan
23321;BME280;33376;51.306;4.752;2022-12-26T02:04:37;73425.72;;;11.82;nan
23321;BME280;33376;51.306;4.752;2022-12-26T02:07:21;73427.25;;;11.77;nan
23321;BME280;33376;51.306;4.752;2022-12-26T02:09:47;73428.75;;;11.77;nan
23321;BME280;33376;51.306;4.752;2022-12-26T02:14:38;73428.75;;;11.74;nan
23321;BME280;33376;51.306;4.752;2022-12-26T02:17:03;73434.88;;;11.65;nan
23321;BME280;33376;51.306;4.752;2022-12-26T02:19:36;73447.06;;;11.54;nan
23321;BME280;33376;51.306;4.752;2022-12-26T02:22:30;73428.75;;;11.71;nan
23321;BME280;33376;51.306;4.752;2022-12-26T02:24:55;73433.34;;;11.60;nan
23321;BME280;33376;51.306;4.752;2022-12-26T02:27:34;73436.41;;;11.56;nan
23321;BME280;33376;51.306;4.752;2022-12-26T02:41:02;73459.28;;;11.41;nan
23321;BME280;33376;51.306;4.752;2022-12-26T02:46:11;73486.75;;;11.20;nan
23321;BME280;33376;51.306;4.752;2022-12-26T02:49:41;73486.75;;;11.20;nan
23321;BME280;33376;51.306;4.752;2022-12-26T02:51:49;73491.31;;;11.17;nan
23321;BME280;33376;51.306;4.752;2022-12-26T02:57:24;73506.59;;;11.03;nan
23321;BME280;33376;51.306;4.752;2022-12-26T03:00:15;73512.69;;;10.91;nan
23321;BME280;33376;51.306;4.752;2022-12-26T03:03:16;73492.84;;;11.11;nan
23321;BME280;33376;51.306;4.752;2022-12-26T03:06:06;73503.53;;;11.06;nan
23321;BME280;33376;51.306;4.752;2022-12-26T03:08:54;73509.63;;;10.91;nan
23321;BME280;33376;51.306;4.752;2022-12-26T03:11:39;73535.56;;;10.76;nan
23321;BME280;33376;51.306;4.752;2022-12-26T03:14:25;73535.56;;;10.71;nan
23321;BME280;33376;51.306;4.752;2022-12-26T03:16:53;73537.09;;;10.68;nan
23321;BME280;33376;51.306;4.752;2022-12-26T03:19:39;73540.16;;;10.62;nan
23321;BME280;33376;51.306;4.752;2022-12-26T03:22:22;73549.31;;;10.51;nan
23321;BME280;33376;51.306;4.752;2022-12-26T03:24:58;73541.66;;;10.54;nan
23321;BME280;33376;51.306;4.752;2022-12-26T03:27:42;73538.63;;;10.55;nan
23321;BME280;33376;51.306;4.752;2022-12-26T03:30:08;73529.47;;;10.66;nan
23321;BME280;33376;51.306;4.752;2022-12-26T03:32:54;73538.63;;;10.54;nan
23321;BME280;33376;51.306;4.752;2022-12-26T03:35:19;73546.25;;;10.49;nan
23321;BME280;33376;51.306;4.752;2022-12-26T03:37:55;73547.78;;;10.48;nan
23321;BME280;33376;51.306;4.752;2022-12-26T03:41:05;73550.81;;;10.44;nan
23321;BME280;33376;51.306;4.752;2022-12-26T03:43:33;73555.41;;;10.52;nan
23321;BME280;33376;51.306;4.752;2022-12-26T03:49:11;73566.09;;;10.52;nan
23321;BME280;33376;51.306;4.752;2022-12-26T03:54:56;73544.72;;;10.75;nan
23321;BME280;33376;51.306;4.752;2022-12-26T03:57:46;73555.41;;;10.57;nan
23321;BME280;33376;51.306;4.752;2022-12-26T04:00:30;73543.19;;;10.70;nan
23321;BME280;33376;51.306;4.752;2022-12-26T04:03:16;73541.69;;;10.67;nan
23321;BME280;33376;51.306;4.752;2022-12-26T04:06:01;73534.03;;;10.76;nan
23321;BME280;33376;51.306;4.752;2022-12-26T04:11:31;73553.88;;;10.58;nan
23321;BME280;33376;51.306;4.752;2022-12-26T04:25:22;73552.34;;;10.50;nan
23321;BME280;33376;51.306;4.752;2022-12-26T04:28:07;73550.81;;;10.51;nan
23321;BME280;33376;51.306;4.752;2022-12-26T04:30:54;73553.88;;;10.50;nan
23321;BME280;33376;51.306;4.752;2022-12-26T04:33:44;73561.50;;;10.38;nan
23321;BME280;33376;51.306;4.752;2022-12-26T04:36:36;73547.78;;;10.52;nan
23321;BME280;33376;51.306;4.752;2022-12-26T04:39:22;73535.56;;;10.65;nan
23321;BME280;33376;51.306;4.752;2022-12-26T04:42:08;73540.16;;;10.59;nan
23321;BME280;33376;51.306;4.752;2022-12-26T04:44:53;73544.72;;;10.54;nan
23321;BME280;33376;51.306;4.752;2022-12-26T04:47:19;73543.19;;;10.55;nan
23321;BME280;33376;51.306;4.752;2022-12-26T04:49:45;73549.31;;;10.52;nan
23321;BME280;33376;51.306;4.752;2022-12-26T04:52:29;73538.63;;;10.63;nan
23321;BME280;33376;51.306;4.752;2022-12-26T04:55:14;73546.25;;;10.58;nan
23321;BME280;33376;51.306;4.752;2022-12-26T04:57:39;73558.47;;;10.49;nan
23321;BME280;33376;51.306;4.752;2022-12-26T05:00:05;73564.56;;;10.38;nan
23321;BME280;33376;51.306;4.752;2022-12-26T05:02:30;73558.47;;;10.48;nan
23321;BME280;33376;51.306;4.752;2022-12-26T05:05:14;73563.03;;;10.40;nan
23321;BME280;33376;51.306;4.752;2022-12-26T05:07:58;73549.31;;;10.57;nan
23321;BME280;33376;51.306;4.752;2022-12-26T05:10:42;73535.56;;;10.70;nan
23321;BME280;33376;51.306;4.752;2022-12-26T05:13:08;73535.56;;;10.71;nan
23321;BME280;33376;51.306;4.752;2022-12-26T05:15:33;73541.66;;;10.61;nan
23321;BME280;33376;51.306;4.752;2022-12-26T05:18:18;73547.78;;;10.55;nan
23321;BME280;33376;51.306;4.752;2022-12-26T05:21:02;73538.63;;;10.61;nan
23321;BME280;33376;51.306;4.752;2022-12-26T05:23:46;73524.88;;;10.72;nan
23321;BME280;33376;51.306;4.752;2022-12-26T05:26:31;73534.03;;;10.67;nan
23321;BME280;33376;51.306;4.752;2022-12-26T05:29:15;73520.31;;;10.84;nan
23321;BME280;33376;51.306;4.752;2022-12-26T05:31:40;73503.53;;;10.92;nan
23321;BME280;33376;51.306;4.752;2022-12-26T05:34:05;73514.22;;;10.80;nan
23321;BME280;33376;51.306;4.752;2022-12-26T05:36:36;73511.16;;;10.84;nan
23321;BME280;33376;51.306;4.752;2022-12-26T05:39:03;73520.31;;;10.74;nan
23321;BME280;33376;51.306;4.752;2022-12-26T05:41:28;73514.22;;;10.82;nan
23321;BME280;33376;51.306;4.752;2022-12-26T05:43:53;73508.09;;;10.87;nan
23321;BME280;33376;51.306;4.752;2022-12-26T05:46:18;73506.59;;;10.92;nan
23321;BME280;33376;51.306;4.752;2022-12-26T05:48:44;73503.53;;;10.99;nan
23321;BME280;33376;51.306;4.752;2022-12-26T05:51:09;73511.16;;;10.92;nan
23321;BME280;33376;51.306;4.752;2022-12-26T05:53:35;73509.63;;;10.98;nan
23321;BME280;33376;51.306;4.752;2022-12-26T05:56:01;73500.47;;;11.06;nan
23321;BME280;33376;51.306;4.752;2022-12-26T05:58:26;73492.84;;;11.15;nan
23321;BME280;33376;51.306;4.752;2022-12-26T06:00:51;73503.53;;;11.06;nan
23321;BME280;33376;51.306;4.752;2022-12-26T06:03:17;73498.94;;;11.14;nan
23321;BME280;33376;51.306;4.752;2022-12-26T06:05:42;73495.91;;;11.17;nan
23321;BME280;33376;51.306;4.752;2022-12-26T06:08:07;73495.91;;;11.23;nan
23321;BME280;33376;51.306;4.752;2022-12-26T06:10:32;73497.44;;;11.21;nan
23321;BME280;33376;51.306;4.752;2022-12-26T06:12:58;73495.91;;;11.23;nan
23321;BME280;33376;51.306;4.752;2022-12-26T06:15:24;73514.22;;;11.08;nan
23321;BME280;33376;51.306;4.752;2022-12-26T06:17:49;73524.88;;;10.99;nan
23321;BME280;33376;51.306;4.752;2022-12-26T06:20:14;73538.63;;;10.86;nan
23321;BME280;33376;51.306;4.752;2022-12-26T06:22:39;73534.03;;;10.88;nan
23321;BME280;33376;51.306;4.752;2022-12-26T06:25:05;73550.81;;;10.73;nan
23321;BME280;33376;51.306;4.752;2022-12-26T06:27:30;73564.56;;;10.56;nan
23321;BME280;33376;51.306;4.752;2022-12-26T06:29:57;73570.66;;;10.51;nan
23321;BME280;33376;51.306;4.752;2022-12-26T06:32:23;73572.19;;;10.47;nan
23321;BME280;33376;51.306;4.752;2022-12-26T06:34:48;73587.44;;;10.31;nan
23321;BME280;33376;51.306;4.752;2022-12-26T06:37:13;73585.91;;;10.33;nan
23321;BME280;33376;51.306;4.752;2022-12-26T06:39:38;73595.06;;;10.22;nan
23321;BME280;33376;51.306;4.752;2022-12-26T06:42:03;73578.28;;;10.44;nan
23321;BME280;33376;51.306;4.752;2022-12-26T06:44:29;73576.78;;;10.52;nan
23321;BME280;33376;51.306;4.752;2022-12-26T06:46:54;73582.88;;;10.44;nan
23321;BME280;33376;51.306;4.752;2022-12-26T06:49:19;73587.44;;;10.40;nan
23321;BME280;33376;51.306;4.752;2022-12-26T06:51:45;73579.81;;;10.47;nan
23321;BME280;33376;51.306;4.752;2022-12-26T06:54:10;73581.34;;;10.47;nan
23321;BME280;33376;51.306;4.752;2022-12-26T06:56:35;73584.41;;;10.38;nan
23321;BME280;33376;51.306;4.752;2022-12-26T06:59:01;73573.72;;;10.56;nan
23321;BME280;33376;51.306;4.752;2022-12-26T07:01:28;73607.28;;;10.23;nan
23321;BME280;33376;51.306;4.752;2022-12-26T07:03:54;73611.88;;;10.14;nan
23321;BME280;33376;51.306;4.752;2022-12-26T07:06:23;73621.00;;;10.03;nan
23321;BME280;33376;51.306;4.752;2022-12-26T07:08:49;73624.06;;;10.01;nan
23321;BME280;33376;51.306;4.752;2022-12-26T07:11:15;73633.22;;;9.93;nan
23321;BME280;33376;51.306;4.752;2022-12-26T07:13:41;73627.13;;;10.01;nan
23321;BME280;33376;51.306;4.752;2022-12-26T07:16:07;73634.75;;;9.99;nan
23321;BME280;33376;51.306;4.752;2022-12-26T07:18:32;73633.22;;;9.95;nan
23321;BME280;33376;51.306;4.752;2022-12-26T07:20:57;73634.75;;;9.93;nan
23321;BME280;33376;51.306;4.752;2022-12-26T07:23:23;73633.22;;;9.94;nan
23321;BME280;33376;51.306;4.752;2022-12-26T07:25:48;73633.22;;;9.94;nan
23321;BME280;33376;51.306;4.752;2022-12-26T07:28:14;73631.69;;;10.00;nan
23321;BME280;33376;51.306;4.752;2022-12-26T07:30:43;73624.06;;;10.04;nan
23321;BME280;33376;51.306;4.752;2022-12-26T07:33:09;73624.06;;;10.06;nan
23321;BME280;33376;51.306;4.752;2022-12-26T07:35:34;73624.06;;;10.04;nan
23321;BME280;33376;51.306;4.752;2022-12-26T07:38:00;73613.38;;;10.10;nan
23321;BME280;33376;51.306;4.752;2022-12-26T07:40:25;73605.75;;;10.20;nan
23321;BME280;33376;51.306;4.752;2022-12-26T07:42:51;73607.28;;;10.19;nan
23321;BME280;33376;51.306;4.752;2022-12-26T07:45:16;73607.28;;;10.22;nan
23321;BME280;33376;51.306;4.752;2022-12-26T07:47:42;73608.81;;;10.16;nan
23321;BME280;33376;51.306;4.752;2022-12-26T07:50:07;73607.28;;;10.21;nan
23321;BME280;33376;51.306;4.752;2022-12-26T07:52:32;73611.88;;;10.20;nan
23321;BME280;33376;51.306;4.752;2022-12-26T07:54:58;73613.38;;;10.12;nan
23321;BME280;33376;51.306;4.752;2022-12-26T07:57:23;73619.50;;;10.04;nan
23321;BME280;33376;51.306;4.752;2022-12-26T07:59:48;73630.16;;;9.91;nan
23321;BME280;33376;51.306;4.752;2022-12-26T08:02:13;73622.53;;;10.06;nan
23321;BME280;33376;51.306;4.752;2022-12-26T08:04:39;73624.06;;;10.03;nan
23321;BME280;33376;51.306;4.752;2022-12-26T08:07:04;73621.00;;;10.04;nan
23321;BME280;33376;51.306;4.752;2022-12-26T08:09:29;73614.91;;;10.10;nan
23321;BME280;33376;51.306;4.752;2022-12-26T08:11:55;73624.06;;;10.06;nan
23321;BME280;33376;51.306;4.752;2022-12-26T08:14:21;73605.75;;;10.22;nan
23321;BME280;33376;51.306;4.752;2022-12-26T08:16:46;73599.66;;;10.29;nan
23321;BME280;33376;51.306;4.752;2022-12-26T08:19:11;73590.50;;;10.44;nan
23321;BME280;33376;51.306;4.752;2022-12-26T08:21:36;73588.97;;;10.45;nan
23321;BME280;33376;51.306;4.752;2022-12-26T08:24:02;73588.97;;;10.45;nan
23321;BME280;33376;51.306;4.752;2022-12-26T08:26:27;73593.56;;;10.43;nan
23321;BME280;33376;51.306;4.752;2022-12-26T08:28:54;73587.44;;;10.51;nan
23321;BME280;33376;51.306;4.752;2022-12-26T08:31:19;73598.13;;;10.43;nan
23321;BME280;33376;51.306;4.752;2022-12-26T08:33:45;73604.22;;;10.39;nan
23321;BME280;33376;51.306;4.752;2022-12-26T08:36:11;73596.59;;;10.43;nan
23321;BME280;33376;51.306;4.752;2022-12-26T08:38:37;73592.03;;;10.53;nan
23321;BME280;33376;51.306;4.752;2022-12-26T08:41:02;73576.78;;;10.73;nan
23321;BME280;33376;51.306;4.752;2022-12-26T08:43:28;73569.13;;;10.86;nan
23321;BME280;33376;51.306;4.752;2022-12-26T08:46:00;73547.78;;;11.07;nan
23321;BME280;33376;51.306;4.752;2022-12-26T08:48:25;73546.25;;;11.15;nan
23321;BME280;33376;51.306;4.752;2022-12-26T08:50:55;73543.19;;;11.27;nan
23321;BME280;33376;51.306;4.752;2022-12-26T08:53:20;73515.75;;;11.53;nan
23321;BME280;33376;51.306;4.752;2022-12-26T08:55:45;73514.22;;;11.54;nan
23321;BME280;33376;51.306;4.752;2022-12-26T08:58:11;73512.69;;;11.63;nan
23321;BME280;33376;51.306;4.752;2022-12-26T09:00:36;73495.91;;;11.90;nan
23321;BME280;33376;51.306;4.752;2022-12-26T09:03:01;73491.31;;;12.00;nan
23321;BME280;33376;51.306;4.752;2022-12-26T09:05:26;73491.34;;;12.10;nan
23321;BME280;33376;51.306;4.752;2022-12-26T09:07:51;73500.50;;;12.15;nan
23321;BME280;33376;51.306;4.752;2022-12-26T09:10:17;73489.81;;;12.30;nan
23321;BME280;33376;51.306;4.752;2022-12-26T09:12:42;73523.38;;;12.10;nan
23321;BME280;33376;51.306;4.752;2022-12-26T09:15:07;73526.44;;;12.03;nan
23321;BME280;33376;51.306;4.752;2022-12-26T09:17:32;73520.31;;;12.10;nan
23321;BME280;33376;51.306;4.752;2022-12-26T09:19:58;73544.72;;;11.96;nan
23321;BME280;33376;51.306;4.752;2022-12-26T09:22:23;73558.47;;;11.87;nan
23321;BME280;33376;51.306;4.752;2022-12-26T09:25:07;73570.69;;;11.78;nan
23321;BME280;33376;51.306;4.752;2022-12-26T09:27:32;73566.09;;;11.86;nan
23321;BME280;33376;51.306;4.752;2022-12-26T09:29:57;73576.78;;;11.83;nan
23321;BME280;33376;51.306;4.752;2022-12-26T09:32:23;73592.03;;;11.72;nan
23321;BME280;33376;51.306;4.752;2022-12-26T09:34:48;73581.34;;;11.94;nan
23321;BME280;33376;51.306;4.752;2022-12-26T09:37:14;73601.19;;;11.73;nan
23321;BME280;33376;51.306;4.752;2022-12-26T09:39:39;73607.28;;;11.68;nan
23321;BME280;33376;51.306;4.752;2022-12-26T09:44:57;73625.59;;;11.58;nan
23321;BME280;33376;51.306;4.752;2022-12-26T09:54:59;73630.19;;;11.68;nan
23321;BME280;33376;51.306;4.752;2022-12-26T09:57:37;73636.28;;;11.68;nan
23321;BME280;33376;51.306;4.752;2022-12-26T10:00:04;73633.22;;;11.72;nan
23321;BME280;33376;51.306;4.752;2022-12-26T10:02:30;73636.28;;;11.85;nan
23321;BME280;33376;51.306;4.752;2022-12-26T10:04:56;73643.91;;;11.77;nan
23321;BME280;33376;51.306;4.752;2022-12-26T10:07:26;73636.28;;;11.86;nan
23321;BME280;33376;51.306;4.752;2022-12-26T10:22:42;73758.34;;;10.94;nan
23321;BME280;33376;51.306;4.752;2022-12-26T10:25:15;73769.03;;;10.86;nan
23321;BME280;33376;51.306;4.752;2022-12-26T10:27:42;73776.66;;;10.75;nan
23321;BME280;33376;51.306;4.752;2022-12-26T10:30:13;73776.66;;;10.74;nan
23321;BME280;33376;51.306;4.752;2022-12-26T10:32:41;73782.75;;;10.75;nan
23321;BME280;33376;51.306;4.752;2022-12-26T10:35:21;73775.13;;;10.82;nan
23321;BME280;33376;51.306;4.752;2022-12-26T10:37:47;73764.47;;;10.94;nan
23321;BME280;33376;51.306;4.752;2022-12-26T10:42:44;73767.50;;;10.98;nan
23321;BME280;33376;51.306;4.752;2022-12-26T10:45:14;73775.13;;;10.94;nan
23321;BME280;33376;51.306;4.752;2022-12-26T10:47:40;73773.59;;;10.95;nan
23321;BME280;33376;51.306;4.752;2022-12-26T10:50:08;73814.81;;;10.61;nan
23321;BME280;33376;51.306;4.752;2022-12-26T10:52:38;73825.50;;;10.50;nan
23321;BME280;33376;51.306;4.752;2022-12-26T10:55:04;73823.97;;;10.47;nan
23321;BME280;33376;51.306;4.752;2022-12-26T10:57:30;73834.66;;;10.42;nan
23321;BME280;33376;51.306;4.752;2022-12-26T10:59:58;73851.44;;;10.25;nan
23321;BME280;33376;51.306;4.752;2022-12-26T11:02:28;73851.44;;;10.37;nan
23321;BME280;33376;51.306;4.752;2022-12-26T11:05:05;73878.91;;;10.08;nan
23321;BME280;33376;51.306;4.752;2022-12-26T11:07:35;73898.72;;;9.92;nan
23321;BME280;33376;51.306;4.752;2022-12-26T11:10:03;73912.47;;;9.73;nan
23321;BME280;33376;51.306;4.752;2022-12-26T11:14:58;73924.66;;;9.58;nan
23321;BME280;33376;51.306;4.752;2022-12-26T11:17:26;73927.72;;;9.55;nan
23321;BME280;33376;51.306;4.752;2022-12-26T11:22:35;73914.00;;;9.66;nan
23321;BME280;33376;51.306;4.752;2022-12-26T11:27:28;73909.41;;;9.68;nan
23321;BME280;33376;51.306;4.752;2022-12-26T11:30:54;73904.84;;;9.74;nan
23321;BME280;33376;51.306;4.752;2022-12-26T11:35:34;73878.88;;;9.95;nan
23321;BME280;33376;51.306;4.752;2022-12-26T11:38:02;73881.94;;;9.92;nan
23321;BME280;33376;51.306;4.752;2022-12-26T11:40:32;73874.31;;;9.89;nan
23321;BME280;33376;51.306;4.752;2022-12-26T11:42:59;73849.91;;;10.13;nan
23321;BME280;33376;51.306;4.752;2022-12-26T11:45:27;73825.50;;;10.24;nan
23321;BME280;33376;51.306;4.752;2022-12-26T11:47:54;73819.38;;;10.16;nan
23321;BME280;33376;51.306;4.752;2022-12-26T11:50:20;73819.38;;;10.12;nan
23321;BME280;33376;51.306;4.752;2022-12-26T11:57:56;73813.28;;;9.98;nan
23321;BME280;33376;51.306;4.752;2022-12-26T12:00:22;73810.22;;;9.98;nan
23321;BME280;33376;51.306;4.752;2022-12-26T12:02:48;73807.19;;;9.97;nan
23321;BME280;33376;51.306;4.752;2022-12-26T12:05:15;73811.75;;;9.86;nan
23321;BME280;33376;51.306;4.752;2022-12-26T12:10:38;73776.66;;;10.02;nan
23321;BME280;33376;51.306;4.752;2022-12-26T12:13:20;73765.97;;;10.06;nan
23321;BME280;33376;51.306;4.752;2022-12-26T12:15:56;73773.59;;;9.97;nan
23321;BME280;33376;51.306;4.752;2022-12-26T12:24:18;73776.66;;;9.73;nan
23321;BME280;33376;51.306;4.752;2022-12-26T12:39:06;73770.56;;;9.48;nan
23321;BME280;33376;51.306;4.752;2022-12-26T12:41:56;73764.44;;;9.46;nan
23321;BME280;33376;51.306;4.752;2022-12-26T12:44:26;73756.81;;;9.50;nan
23321;BME280;33376;51.306;4.752;2022-12-26T12:49:41;73741.56;;;9.56;nan
23321;BME280;33376;51.306;4.752;2022-12-26T13:02:12;73680.53;;;9.56;nan
23321;BME280;33376;51.306;4.752;2022-12-26T13:04:40;73679.00;;;9.48;nan
23321;BME280;33376;51.306;4.752;2022-12-26T13:07:15;73669.84;;;9.44;nan
23321;BME280;33376;51.306;4.752;2022-12-26T13:09:49;73654.59;;;9.44;nan
23321;BME280;33376;51.306;4.752;2022-12-26T13:12:17;73651.53;;;9.46;nan
23321;BME280;33376;51.306;4.752;2022-12-26T13:14:46;73643.91;;;9.50;nan
23321;BME280;33376;51.306;4.752;2022-12-26T13:17:14;73650.00;;;9.46;nan
23321;BME280;33376;51.306;4.752;2022-12-26T13:19:42;73653.06;;;9.31;nan
23321;BME280;33376;51.306;4.752;2022-12-26T13:22:28;73656.09;;;9.34;nan
23321;BME280;33376;51.306;4.752;2022-12-26T13:25:14;73659.16;;;9.07;nan
23321;BME280;33376;51.306;4.752;2022-12-26T13:27:41;73659.16;;;9.01;nan
23321;BME280;33376;51.306;4.752;2022-12-26T13:30:14;73665.25;;;8.90;nan
23321;BME280;33376;51.306;4.752;2022-12-26T13:32:40;73659.16;;;8.94;nan
23321;BME280;33376;51.306;4.752;2022-12-26T13:35:05;73643.91;;;9.09;nan
23321;BME280;33376;51.306;4.752;2022-12-26T13:40:05;73624.06;;;9.25;nan
23321;BME280;33376;51.306;4.752;2022-12-26T13:42:39;73605.75;;;9.33;nan
23321;BME280;33376;51.306;4.752;2022-12-26T13:48:01;73567.59;;;9.25;nan
23321;BME280;33376;51.306;4.752;2022-12-26T13:55:48;73524.88;;;9.31;nan
23321;BME280;33376;51.306;4.752;2022-12-26T13:58:19;73558.44;;;8.84;nan
23321;BME280;33376;51.306;4.752;2022-12-26T14:00:47;73561.50;;;8.71;nan
23321;BME280;33376;51.306;4.752;2022-12-26T14:03:23;73573.72;;;8.62;nan
23321;BME280;33376;51.306;4.752;2022-12-26T14:05:55;73582.88;;;8.43;nan
23321;BME280;33376;51.306;4.752;2022-12-26T14:14:04;73643.91;;;7.82;nan
23321;BME280;33376;51.306;4.752;2022-12-26T14:17:08;73654.59;;;7.62;nan
23321;BME280;33376;51.306;4.752;2022-12-26T14:19:38;73677.47;;;7.47;nan
23321;BME280;33376;51.306;4.752;2022-12-26T14:24:59;73720.19;;;7.13;nan
23321;BME280;33376;51.306;4.752;2022-12-26T14:32:36;73750.72;;;7.32;nan
23321;BME280;33376;51.306;4.752;2022-12-26T14:35:07;73758.34;;;7.26;nan
23321;BME280;33376;51.306;4.752;2022-12-26T14:38:12;73781.22;;;7.11;nan
23321;BME280;33376;51.306;4.752;2022-12-26T14:40:27;73798.03;;;7.01;nan
23321;BME280;33376;51.306;4.752;2022-12-26T14:45:39;73825.47;;;6.58;nan
23321;BME280;33376;51.306;4.752;2022-12-26T14:50:50;73888.03;;;6.48;nan
23321;BME280;33376;51.306;4.752;2022-12-26T14:58:43;73949.09;;;6.25;nan
23321;BME280;33376;51.306;4.752;2022-12-26T15:21:37;74039.13;;;5.82;nan
23321;BME280;33376;51.306;4.752;2022-12-26T15:24:31;74043.69;;;5.76;nan
23321;BME280;33376;51.306;4.752;2022-12-26T15:29:32;74084.88;;;5.54;nan
23321;BME280;33376;51.306;4.752;2022-12-26T15:32:03;74097.09;;;5.50;nan
23321;BME280;33376;51.306;4.752;2022-12-26T15:37:01;74123.03;;;5.35;nan
23321;BME280;33376;51.306;4.752;2022-12-26T16:02:14;74264.94;;;4.59;nan
23321;BME280;33376;51.306;4.752;2022-12-26T16:07:36;74303.09;;;4.35;nan
23321;BME280;33376;51.306;4.752;2022-12-26T16:12:56;74319.88;;;4.35;nan
23321;BME280;33376;51.306;4.752;2022-12-26T16:15:22;74336.69;;;4.29;nan
23321;BME280;33376;51.306;4.752;2022-12-26T16:17:49;74335.16;;;4.34;nan
23321;BME280;33376;51.306;4.752;2022-12-26T16:20:16;74338.19;;;4.38;nan
23321;BME280;33376;51.306;4.752;2022-12-26T16:22:41;74324.47;;;4.51;nan
23321;BME280;33376;51.306;4.752;2022-12-26T16:25:23;74322.94;;;4.54;nan
23321;BME280;33376;51.306;4.752;2022-12-26T16:27:50;74329.03;;;4.50;nan
23321;BME280;33376;51.306;4.752;2022-12-26T16:30:18;74324.47;;;4.63;nan
23321;BME280;33376;51.306;4.752;2022-12-26T16:32:44;74333.63;;;4.50;nan
23321;BME280;33376;51.306;4.752;2022-12-26T16:35:17;74338.19;;;4.50;nan
23321;BME280;33376;51.306;4.752;2022-12-26T16:37:43;74330.56;;;4.48;nan
23321;BME280;33376;51.306;4.752;2022-12-26T16:40:20;74330.56;;;4.52;nan
23321;BME280;33376;51.306;4.752;2022-12-26T16:42:53;74326.00;;;4.50;nan
23321;BME280;33376;51.306;4.752;2022-12-26T16:45:19;74330.56;;;4.43;nan
23321;BME280;33376;51.306;4.752;2022-12-26T16:47:44;74329.03;;;4.45;nan
23321;BME280;33376;51.306;4.752;2022-12-26T16:50:15;74324.47;;;4.49;nan
23321;BME280;33376;51.306;4.752;2022-12-26T16:52:40;74321.41;;;4.48;nan
23321;BME280;33376;51.306;4.752;2022-12-26T16:57:46;74313.78;;;4.51;nan
23321;BME280;33376;51.306;4.752;2022-12-26T17:00:15;74321.41;;;4.41;nan
23321;BME280;33376;51.306;4.752;2022-12-26T17:02:43;74332.09;;;4.37;nan
23321;BME280;33376;51.306;4.752;2022-12-26T17:07:50;74335.16;;;4.26;nan